sensor_id;sensor_type;location;lat;lon;timestamp;P1;durP1;ratioP1;P2;durP2;ratioP2
1885;SDS011;943;51.568;6.998;2022-12-04T00:01:25;46.40;;;24.10;;
1885;SDS011;943;51.568;6.998;2022-12-04T00:03:56;45.70;;;22.20;;
1885;SDS011;943;51.568;6.998;2022-12-04T00:06:27;51.33;;;26.60;;
1885;SDS011;943;51.568;6.998;2022-12-04T00:08:55;47.60;;;25.43;;
1885;SDS011;943;51.568;6.998;2022-12-04T00:11:24;49.10;;;24.97;;
1885;SDS011;943;51.568;6.998;2022-12-04T00:13:58;49.57;;;24.33;;
1885;SDS011;943;51.568;6.998;2022-12-04T00:16:32;44.83;;;24.07;;
1885;SDS011;943;51.568;6.998;2022-12-04T00:19:01;47.43;;;24.93;;
1885;SDS011;943;51.568;6.998;2022-12-04T00:21:29;44.37;;;25.27;;
1885;SDS011;943;51.568;6.998;2022-12-04T00:23:57;51.20;;;26.00;;
1885;SDS011;943;51.568;6.998;2022-12-04T00:26:25;41.33;;;23.03;;
1885;SDS011;943;51.568;6.998;2022-12-04T00:28:56;48.40;;;25.90;;
1885;SDS011;943;51.568;6.998;2022-12-04T00:31:26;49.17;;;23.80;;
1885;SDS011;943;51.568;6.998;2022-12-04T00:33:56;47.53;;;24.90;;
1885;SDS011;943;51.568;6.998;2022-12-04T00:36:26;46.50;;;22.93;;
1885;SDS011;943;51.568;6.998;2022-12-04T00:38:55;52.80;;;27.00;;
1885;SDS011;943;51.568;6.998;2022-12-04T00:41:27;49.70;;;24.23;;
1885;SDS011;943;51.568;6.998;2022-12-04T00:43:58;44.53;;;24.47;;
1885;SDS011;943;51.568;6.998;2022-12-04T00:46:29;42.73;;;22.60;;
1885;SDS011;943;51.568;6.998;2022-12-04T00:48:57;44.43;;;23.33;;
1885;SDS011;943;51.568;6.998;2022-12-04T00:51:28;49.70;;;24.20;;
1885;SDS011;943;51.568;6.998;2022-12-04T00:53:56;60.80;;;28.27;;
1885;SDS011;943;51.568;6.998;2022-12-04T00:56:25;56.90;;;26.27;;
1885;SDS011;943;51.568;6.998;2022-12-04T00:58:56;49.50;;;26.23;;
1885;SDS011;943;51.568;6.998;2022-12-04T01:01:27;51.23;;;24.60;;
1885;SDS011;943;51.568;6.998;2022-12-04T01:03:56;49.70;;;24.70;;
1885;SDS011;943;51.568;6.998;2022-12-04T01:06:25;46.40;;;24.23;;
1885;SDS011;943;51.568;6.998;2022-12-04T01:09:01;47.17;;;24.70;;
1885;SDS011;943;51.568;6.998;2022-12-04T01:11:32;49.23;;;23.40;;
1885;SDS011;943;51.568;6.998;2022-12-04T01:14:00;46.17;;;26.03;;
1885;SDS011;943;51.568;6.998;2022-12-04T01:16:35;43.57;;;22.27;;
1885;SDS011;943;51.568;6.998;2022-12-04T01:19:06;53.17;;;26.60;;
1885;SDS011;943;51.568;6.998;2022-12-04T01:21:38;56.77;;;27.90;;
1885;SDS011;943;51.568;6.998;2022-12-04T01:24:07;50.13;;;25.83;;
1885;SDS011;943;51.568;6.998;2022-12-04T01:26:36;52.90;;;27.80;;
1885;SDS011;943;51.568;6.998;2022-12-04T01:29:03;51.00;;;26.57;;
1885;SDS011;943;51.568;6.998;2022-12-04T01:31:31;50.30;;;24.90;;
1885;SDS011;943;51.568;6.998;2022-12-04T01:33:59;47.80;;;24.27;;
1885;SDS011;943;51.568;6.998;2022-12-04T01:36:27;54.00;;;25.93;;
1885;SDS011;943;51.568;6.998;2022-12-04T01:38:55;42.37;;;22.50;;
1885;SDS011;943;51.568;6.998;2022-12-04T01:41:25;53.97;;;25.90;;
1885;SDS011;943;51.568;6.998;2022-12-04T01:44:09;53.83;;;25.40;;
1885;SDS011;943;51.568;6.998;2022-12-04T01:49:30;50.33;;;25.53;;
1885;SDS011;943;51.568;6.998;2022-12-04T01:54:54;53.90;;;24.20;;
1885;SDS011;943;51.568;6.998;2022-12-04T01:57:27;54.63;;;25.13;;
1885;SDS011;943;51.568;6.998;2022-12-04T02:00:09;51.63;;;24.03;;
1885;SDS011;943;51.568;6.998;2022-12-04T02:02:42;45.30;;;25.00;;
1885;SDS011;943;51.568;6.998;2022-12-04T02:05:15;46.93;;;23.43;;
1885;SDS011;943;51.568;6.998;2022-12-04T02:07:48;44.50;;;24.80;;
1885;SDS011;943;51.568;6.998;2022-12-04T02:10:27;48.67;;;25.07;;
1885;SDS011;943;51.568;6.998;2022-12-04T02:20:24;46.33;;;24.03;;
1885;SDS011;943;51.568;6.998;2022-12-04T02:23:46;50.47;;;26.73;;
1885;SDS011;943;51.568;6.998;2022-12-04T02:27:01;58.57;;;28.30;;
1885;SDS011;943;51.568;6.998;2022-12-04T02:30:06;58.20;;;26.93;;
1885;SDS011;943;51.568;6.998;2022-12-04T02:35:44;42.87;;;22.67;;
1885;SDS011;943;51.568;6.998;2022-12-04T02:38:41;44.03;;;23.20;;
1885;SDS011;943;51.568;6.998;2022-12-04T02:41:46;42.43;;;23.10;;
1885;SDS011;943;51.568;6.998;2022-12-04T02:44:36;43.60;;;22.93;;
1885;SDS011;943;51.568;6.998;2022-12-04T02:47:17;48.30;;;24.57;;
1885;SDS011;943;51.568;6.998;2022-12-04T02:50:00;49.83;;;24.60;;
1885;SDS011;943;51.568;6.998;2022-12-04T02:52:45;44.53;;;24.13;;
1885;SDS011;943;51.568;6.998;2022-12-04T02:55:36;44.53;;;24.90;;
1885;SDS011;943;51.568;6.998;2022-12-04T02:58:20;46.07;;;23.80;;
1885;SDS011;943;51.568;6.998;2022-12-04T03:01:19;47.70;;;25.27;;
1885;SDS011;943;51.568;6.998;2022-12-04T03:06:56;46.87;;;23.50;;
1885;SDS011;943;51.568;6.998;2022-12-04T03:09:57;40.23;;;20.57;;
1885;SDS011;943;51.568;6.998;2022-12-04T03:12:53;48.90;;;25.47;;
1885;SDS011;943;51.568;6.998;2022-12-04T03:15:52;38.57;;;21.83;;
1885;SDS011;943;51.568;6.998;2022-12-04T03:19:10;48.10;;;23.83;;
1885;SDS011;943;51.568;6.998;2022-12-04T03:22:02;44.43;;;24.60;;
1885;SDS011;943;51.568;6.998;2022-12-04T03:24:42;41.30;;;21.83;;
1885;SDS011;943;51.568;6.998;2022-12-04T03:27:28;49.77;;;24.90;;
1885;SDS011;943;51.568;6.998;2022-12-04T03:30:33;46.00;;;23.50;;
1885;SDS011;943;51.568;6.998;2022-12-04T03:33:31;38.33;;;19.07;;
1885;SDS011;943;51.568;6.998;2022-12-04T03:36:25;43.17;;;22.07;;
1885;SDS011;943;51.568;6.998;2022-12-04T03:39:29;46.47;;;23.20;;
1885;SDS011;943;51.568;6.998;2022-12-04T03:45:25;39.50;;;23.60;;
1885;SDS011;943;51.568;6.998;2022-12-04T03:48:10;43.50;;;23.07;;
1885;SDS011;943;51.568;6.998;2022-12-04T03:51:38;36.33;;;19.07;;
1885;SDS011;943;51.568;6.998;2022-12-04T03:54:29;33.63;;;21.40;;
1885;SDS011;943;51.568;6.998;2022-12-04T03:57:14;46.67;;;22.90;;
1885;SDS011;943;51.568;6.998;2022-12-04T04:00:06;38.60;;;22.67;;
1885;SDS011;943;51.568;6.998;2022-12-04T04:05:33;48.53;;;22.30;;
1885;SDS011;943;51.568;6.998;2022-12-04T04:08:17;36.83;;;20.90;;
1885;SDS011;943;51.568;6.998;2022-12-04T04:11:42;36.90;;;18.20;;
1885;SDS011;943;51.568;6.998;2022-12-04T04:14:56;41.73;;;22.60;;
1885;SDS011;943;51.568;6.998;2022-12-04T04:18:01;38.80;;;20.47;;
1885;SDS011;943;51.568;6.998;2022-12-04T04:20:49;41.77;;;20.13;;
1885;SDS011;943;51.568;6.998;2022-12-04T04:23:45;35.67;;;21.67;;
1885;SDS011;943;51.568;6.998;2022-12-04T04:26:37;38.63;;;20.73;;
1885;SDS011;943;51.568;6.998;2022-12-04T04:29:14;37.87;;;19.50;;
1885;SDS011;943;51.568;6.998;2022-12-04T04:31:42;37.23;;;21.63;;
1885;SDS011;943;51.568;6.998;2022-12-04T04:41:14;34.10;;;17.63;;
1885;SDS011;943;51.568;6.998;2022-12-04T04:44:23;39.63;;;20.00;;
1885;SDS011;943;51.568;6.998;2022-12-04T04:47:17;39.47;;;20.97;;
1885;SDS011;943;51.568;6.998;2022-12-04T04:50:10;34.07;;;20.20;;
1885;SDS011;943;51.568;6.998;2022-12-04T04:52:44;40.73;;;24.00;;
1885;SDS011;943;51.568;6.998;2022-12-04T04:55:24;37.20;;;20.80;;
1885;SDS011;943;51.568;6.998;2022-12-04T04:57:56;39.20;;;19.00;;
1885;SDS011;943;51.568;6.998;2022-12-04T05:03:31;36.70;;;21.10;;
1885;SDS011;943;51.568;6.998;2022-12-04T05:05:59;36.43;;;20.40;;
1885;SDS011;943;51.568;6.998;2022-12-04T05:08:27;36.50;;;19.67;;
1885;SDS011;943;51.568;6.998;2022-12-04T05:10:55;39.37;;;20.50;;
1885;SDS011;943;51.568;6.998;2022-12-04T05:13:23;38.97;;;20.43;;
1885;SDS011;943;51.568;6.998;2022-12-04T05:16:04;39.00;;;21.80;;
1885;SDS011;943;51.568;6.998;2022-12-04T05:18:39;29.30;;;15.77;;
1885;SDS011;943;51.568;6.998;2022-12-04T05:21:29;32.40;;;16.97;;
1885;SDS011;943;51.568;6.998;2022-12-04T05:24:00;31.57;;;17.03;;
1885;SDS011;943;51.568;6.998;2022-12-04T05:26:28;33.93;;;20.20;;
1885;SDS011;943;51.568;6.998;2022-12-04T05:28:55;42.30;;;20.17;;
1885;SDS011;943;51.568;6.998;2022-12-04T05:31:23;34.33;;;19.73;;
1885;SDS011;943;51.568;6.998;2022-12-04T05:33:51;37.73;;;18.40;;
1885;SDS011;943;51.568;6.998;2022-12-04T05:36:18;32.77;;;18.33;;
1885;SDS011;943;51.568;6.998;2022-12-04T05:38:46;32.83;;;16.83;;
1885;SDS011;943;51.568;6.998;2022-12-04T05:41:13;36.97;;;21.37;;
1885;SDS011;943;51.568;6.998;2022-12-04T05:43:41;28.63;;;17.07;;
1885;SDS011;943;51.568;6.998;2022-12-04T05:46:10;39.17;;;18.13;;
1885;SDS011;943;51.568;6.998;2022-12-04T05:48:38;36.63;;;19.47;;
1885;SDS011;943;51.568;6.998;2022-12-04T05:51:06;40.60;;;20.43;;
1885;SDS011;943;51.568;6.998;2022-12-04T05:53:36;38.37;;;20.73;;
1885;SDS011;943;51.568;6.998;2022-12-04T05:56:05;32.47;;;18.03;;
1885;SDS011;943;51.568;6.998;2022-12-04T05:58:35;33.73;;;18.30;;
1885;SDS011;943;51.568;6.998;2022-12-04T06:01:11;33.60;;;18.30;;
1885;SDS011;943;51.568;6.998;2022-12-04T06:03:45;35.77;;;18.23;;
1885;SDS011;943;51.568;6.998;2022-12-04T06:06:20;37.07;;;17.70;;
1885;SDS011;943;51.568;6.998;2022-12-04T06:08:51;38.10;;;21.10;;
1885;SDS011;943;51.568;6.998;2022-12-04T06:11:28;37.73;;;20.57;;
1885;SDS011;943;51.568;6.998;2022-12-04T06:14:02;31.20;;;19.23;;
1885;SDS011;943;51.568;6.998;2022-12-04T06:16:37;31.57;;;19.40;;
1885;SDS011;943;51.568;6.998;2022-12-04T06:19:12;24.60;;;14.37;;
1885;SDS011;943;51.568;6.998;2022-12-04T06:21:46;34.07;;;20.07;;
1885;SDS011;943;51.568;6.998;2022-12-04T06:24:22;34.07;;;18.93;;
1885;SDS011;943;51.568;6.998;2022-12-04T06:26:54;32.87;;;17.97;;
1885;SDS011;943;51.568;6.998;2022-12-04T06:29:45;32.07;;;17.40;;
1885;SDS011;943;51.568;6.998;2022-12-04T06:32:13;32.60;;;19.17;;
1885;SDS011;943;51.568;6.998;2022-12-04T06:34:50;33.40;;;17.90;;
1885;SDS011;943;51.568;6.998;2022-12-04T06:37:21;34.70;;;18.73;;
1885;SDS011;943;51.568;6.998;2022-12-04T06:39:51;28.77;;;15.70;;
1885;SDS011;943;51.568;6.998;2022-12-04T06:42:19;33.77;;;20.67;;
1885;SDS011;943;51.568;6.998;2022-12-04T06:44:48;35.10;;;19.70;;
1885;SDS011;943;51.568;6.998;2022-12-04T06:47:16;42.47;;;20.93;;
1885;SDS011;943;51.568;6.998;2022-12-04T06:49:47;31.23;;;16.70;;
1885;SDS011;943;51.568;6.998;2022-12-04T06:52:16;34.90;;;18.77;;
1885;SDS011;943;51.568;6.998;2022-12-04T06:54:44;27.87;;;15.47;;
1885;SDS011;943;51.568;6.998;2022-12-04T06:57:12;34.47;;;20.00;;
1885;SDS011;943;51.568;6.998;2022-12-04T06:59:40;31.60;;;19.73;;
1885;SDS011;943;51.568;6.998;2022-12-04T07:02:09;33.00;;;20.90;;
1885;SDS011;943;51.568;6.998;2022-12-04T07:04:37;35.77;;;19.87;;
1885;SDS011;943;51.568;6.998;2022-12-04T07:07:06;32.73;;;17.77;;
1885;SDS011;943;51.568;6.998;2022-12-04T07:09:35;32.70;;;20.70;;
1885;SDS011;943;51.568;6.998;2022-12-04T07:12:03;32.20;;;19.17;;
1885;SDS011;943;51.568;6.998;2022-12-04T07:14:32;28.70;;;16.60;;
1885;SDS011;943;51.568;6.998;2022-12-04T07:16:59;32.90;;;19.67;;
1885;SDS011;943;51.568;6.998;2022-12-04T07:19:27;37.03;;;19.40;;
1885;SDS011;943;51.568;6.998;2022-12-04T07:21:55;31.43;;;17.30;;
1885;SDS011;943;51.568;6.998;2022-12-04T07:24:23;35.37;;;19.70;;
1885;SDS011;943;51.568;6.998;2022-12-04T07:26:50;26.23;;;14.40;;
1885;SDS011;943;51.568;6.998;2022-12-04T07:29:18;31.80;;;18.27;;
1885;SDS011;943;51.568;6.998;2022-12-04T07:31:45;33.70;;;16.50;;
1885;SDS011;943;51.568;6.998;2022-12-04T07:34:13;33.87;;;19.03;;
1885;SDS011;943;51.568;6.998;2022-12-04T07:36:41;36.60;;;22.00;;
1885;SDS011;943;51.568;6.998;2022-12-04T07:39:08;33.80;;;20.87;;
1885;SDS011;943;51.568;6.998;2022-12-04T07:41:37;30.63;;;18.43;;
1885;SDS011;943;51.568;6.998;2022-12-04T07:44:06;40.00;;;21.47;;
1885;SDS011;943;51.568;6.998;2022-12-04T07:46:34;29.07;;;16.47;;
1885;SDS011;943;51.568;6.998;2022-12-04T07:49:01;36.43;;;20.43;;
1885;SDS011;943;51.568;6.998;2022-12-04T07:51:29;30.80;;;16.73;;
1885;SDS011;943;51.568;6.998;2022-12-04T07:53:56;31.80;;;18.30;;
1885;SDS011;943;51.568;6.998;2022-12-04T07:56:30;31.70;;;18.10;;
1885;SDS011;943;51.568;6.998;2022-12-04T07:58:59;27.47;;;13.30;;
1885;SDS011;943;51.568;6.998;2022-12-04T08:01:27;28.37;;;15.27;;
1885;SDS011;943;51.568;6.998;2022-12-04T08:03:57;25.30;;;15.43;;
1885;SDS011;943;51.568;6.998;2022-12-04T08:06:29;25.17;;;14.00;;
1885;SDS011;943;51.568;6.998;2022-12-04T08:09:00;29.67;;;18.67;;
1885;SDS011;943;51.568;6.998;2022-12-04T08:11:35;29.47;;;19.10;;
1885;SDS011;943;51.568;6.998;2022-12-04T08:14:04;28.23;;;18.63;;
1885;SDS011;943;51.568;6.998;2022-12-04T08:16:34;32.80;;;19.43;;
1885;SDS011;943;51.568;6.998;2022-12-04T08:19:02;31.70;;;21.40;;
1885;SDS011;943;51.568;6.998;2022-12-04T08:21:31;32.67;;;20.17;;
1885;SDS011;943;51.568;6.998;2022-12-04T08:24:00;38.50;;;20.63;;
1885;SDS011;943;51.568;6.998;2022-12-04T08:26:29;35.17;;;20.67;;
1885;SDS011;943;51.568;6.998;2022-12-04T08:28:59;23.60;;;15.80;;
1885;SDS011;943;51.568;6.998;2022-12-04T08:31:29;33.40;;;22.00;;
1885;SDS011;943;51.568;6.998;2022-12-04T08:34:02;21.00;;;14.97;;
1885;SDS011;943;51.568;6.998;2022-12-04T08:36:33;39.50;;;24.70;;
1885;SDS011;943;51.568;6.998;2022-12-04T08:39:01;37.47;;;23.87;;
1885;SDS011;943;51.568;6.998;2022-12-04T08:41:30;36.80;;;23.47;;
1885;SDS011;943;51.568;6.998;2022-12-04T08:43:58;24.93;;;15.57;;
1885;SDS011;943;51.568;6.998;2022-12-04T08:46:27;31.27;;;20.37;;
1885;SDS011;943;51.568;6.998;2022-12-04T08:48:55;34.30;;;21.90;;
1885;SDS011;943;51.568;6.998;2022-12-04T08:51:25;30.40;;;21.67;;
1885;SDS011;943;51.568;6.998;2022-12-04T08:54:00;27.60;;;15.57;;
1885;SDS011;943;51.568;6.998;2022-12-04T08:56:34;32.77;;;15.77;;
1885;SDS011;943;51.568;6.998;2022-12-04T08:59:02;31.70;;;20.00;;
1885;SDS011;943;51.568;6.998;2022-12-04T09:01:31;35.00;;;19.20;;
1885;SDS011;943;51.568;6.998;2022-12-04T09:04:00;32.30;;;16.60;;
1885;SDS011;943;51.568;6.998;2022-12-04T09:06:28;28.70;;;17.83;;
1885;SDS011;943;51.568;6.998;2022-12-04T09:08:56;30.50;;;19.03;;
1885;SDS011;943;51.568;6.998;2022-12-04T09:11:25;28.73;;;17.83;;
1885;SDS011;943;51.568;6.998;2022-12-04T09:13:53;22.10;;;12.37;;
1885;SDS011;943;51.568;6.998;2022-12-04T09:16:22;28.40;;;15.80;;
1885;SDS011;943;51.568;6.998;2022-12-04T09:18:51;31.27;;;18.23;;
1885;SDS011;943;51.568;6.998;2022-12-04T09:21:21;33.90;;;21.70;;
1885;SDS011;943;51.568;6.998;2022-12-04T09:23:50;40.40;;;22.03;;
1885;SDS011;943;51.568;6.998;2022-12-04T09:26:28;40.93;;;22.80;;
1885;SDS011;943;51.568;6.998;2022-12-04T09:28:59;38.63;;;23.60;;
1885;SDS011;943;51.568;6.998;2022-12-04T09:31:31;26.83;;;16.30;;
1885;SDS011;943;51.568;6.998;2022-12-04T09:34:00;34.73;;;21.03;;
1885;SDS011;943;51.568;6.998;2022-12-04T09:36:28;33.00;;;21.93;;
1885;SDS011;943;51.568;6.998;2022-12-04T09:38:56;24.00;;;15.40;;
1885;SDS011;943;51.568;6.998;2022-12-04T09:41:29;40.40;;;22.20;;
1885;SDS011;943;51.568;6.998;2022-12-04T09:44:03;32.03;;;17.83;;
1885;SDS011;943;51.568;6.998;2022-12-04T09:53:22;45.20;;;25.20;;
1885;SDS011;943;51.568;6.998;2022-12-04T09:56:11;40.17;;;23.43;;
1885;SDS011;943;51.568;6.998;2022-12-04T09:58:50;37.43;;;19.60;;
1885;SDS011;943;51.568;6.998;2022-12-04T10:04:31;38.90;;;20.30;;
1885;SDS011;943;51.568;6.998;2022-12-04T10:09:57;32.70;;;17.30;;
1885;SDS011;943;51.568;6.998;2022-12-04T10:19:02;37.40;;;23.00;;
1885;SDS011;943;51.568;6.998;2022-12-04T10:22:15;45.20;;;23.97;;
1885;SDS011;943;51.568;6.998;2022-12-04T10:25:16;39.10;;;24.83;;
1885;SDS011;943;51.568;6.998;2022-12-04T10:28:10;38.57;;;23.97;;
1885;SDS011;943;51.568;6.998;2022-12-04T10:31:01;38.10;;;23.83;;
1885;SDS011;943;51.568;6.998;2022-12-04T10:33:38;34.33;;;22.47;;
1885;SDS011;943;51.568;6.998;2022-12-04T10:36:51;27.63;;;19.50;;
1885;SDS011;943;51.568;6.998;2022-12-04T10:39:40;36.10;;;19.97;;
1885;SDS011;943;51.568;6.998;2022-12-04T10:42:57;32.90;;;20.10;;
1885;SDS011;943;51.568;6.998;2022-12-04T10:45:46;29.50;;;16.67;;
1885;SDS011;943;51.568;6.998;2022-12-04T10:48:25;39.00;;;23.37;;
1885;SDS011;943;51.568;6.998;2022-12-04T10:51:11;36.60;;;18.37;;
1885;SDS011;943;51.568;6.998;2022-12-04T10:53:44;30.57;;;16.00;;
1885;SDS011;943;51.568;6.998;2022-12-04T10:59:01;26.80;;;15.20;;
1885;SDS011;943;51.568;6.998;2022-12-04T11:01:41;28.77;;;17.47;;
1885;SDS011;943;51.568;6.998;2022-12-04T11:04:20;33.60;;;19.43;;
1885;SDS011;943;51.568;6.998;2022-12-04T11:07:03;29.10;;;18.97;;
1885;SDS011;943;51.568;6.998;2022-12-04T11:09:56;37.73;;;21.33;;
1885;SDS011;943;51.568;6.998;2022-12-04T11:13:04;33.60;;;20.17;;
1885;SDS011;943;51.568;6.998;2022-12-04T11:15:41;36.23;;;20.53;;
1885;SDS011;943;51.568;6.998;2022-12-04T11:18:19;30.90;;;18.97;;
1885;SDS011;943;51.568;6.998;2022-12-04T11:21:05;28.43;;;16.70;;
1885;SDS011;943;51.568;6.998;2022-12-04T11:23:48;30.53;;;19.07;;
1885;SDS011;943;51.568;6.998;2022-12-04T11:29:17;33.23;;;20.90;;
1885;SDS011;943;51.568;6.998;2022-12-04T11:32:01;30.63;;;19.50;;
1885;SDS011;943;51.568;6.998;2022-12-04T11:34:36;32.30;;;21.03;;
1885;SDS011;943;51.568;6.998;2022-12-04T11:37:16;33.70;;;19.50;;
1885;SDS011;943;51.568;6.998;2022-12-04T11:40:01;32.63;;;20.20;;
1885;SDS011;943;51.568;6.998;2022-12-04T11:43:00;41.20;;;25.30;;
1885;SDS011;943;51.568;6.998;2022-12-04T11:45:40;27.83;;;17.60;;
1885;SDS011;943;51.568;6.998;2022-12-04T11:48:40;34.40;;;23.27;;
1885;SDS011;943;51.568;6.998;2022-12-04T11:54:50;40.27;;;23.77;;
1885;SDS011;943;51.568;6.998;2022-12-04T11:58:02;40.63;;;25.83;;
1885;SDS011;943;51.568;6.998;2022-12-04T12:00:58;40.00;;;22.00;;
1885;SDS011;943;51.568;6.998;2022-12-04T12:14:08;35.10;;;22.73;;
1885;SDS011;943;51.568;6.998;2022-12-04T12:17:38;30.37;;;19.37;;
1885;SDS011;943;51.568;6.998;2022-12-04T12:21:23;34.87;;;19.77;;
1885;SDS011;943;51.568;6.998;2022-12-04T12:24:34;28.87;;;18.07;;
1885;SDS011;943;51.568;6.998;2022-12-04T12:34:45;30.23;;;18.40;;
1885;SDS011;943;51.568;6.998;2022-12-04T12:37:23;30.20;;;18.30;;
1885;SDS011;943;51.568;6.998;2022-12-04T12:40:27;25.57;;;16.20;;
1885;SDS011;943;51.568;6.998;2022-12-04T12:46:14;30.70;;;19.80;;
1885;SDS011;943;51.568;6.998;2022-12-04T12:49:17;27.67;;;18.43;;
1885;SDS011;943;51.568;6.998;2022-12-04T12:52:19;27.57;;;17.50;;
1885;SDS011;943;51.568;6.998;2022-12-04T12:55:19;26.63;;;16.70;;
1885;SDS011;943;51.568;6.998;2022-12-04T12:58:20;28.33;;;17.47;;
1885;SDS011;943;51.568;6.998;2022-12-04T13:04:42;31.30;;;22.57;;
1885;SDS011;943;51.568;6.998;2022-12-04T13:10:41;27.07;;;16.37;;
1885;SDS011;943;51.568;6.998;2022-12-04T13:13:29;22.70;;;16.77;;
1885;SDS011;943;51.568;6.998;2022-12-04T13:22:03;34.23;;;22.47;;
1885;SDS011;943;51.568;6.998;2022-12-04T13:42:33;35.97;;;19.23;;
1885;SDS011;943;51.568;6.998;2022-12-04T13:45:09;28.43;;;19.50;;
1885;SDS011;943;51.568;6.998;2022-12-04T13:47:59;32.93;;;19.90;;
1885;SDS011;943;51.568;6.998;2022-12-04T13:50:30;27.60;;;18.30;;
1885;SDS011;943;51.568;6.998;2022-12-04T13:53:04;29.50;;;19.77;;
1885;SDS011;943;51.568;6.998;2022-12-04T13:55:56;29.90;;;20.27;;
1885;SDS011;943;51.568;6.998;2022-12-04T13:58:34;28.90;;;18.30;;
1885;SDS011;943;51.568;6.998;2022-12-04T14:01:06;30.80;;;20.67;;
1885;SDS011;943;51.568;6.998;2022-12-04T14:03:56;28.20;;;17.53;;
1885;SDS011;943;51.568;6.998;2022-12-04T14:06:38;23.60;;;16.20;;
1885;SDS011;943;51.568;6.998;2022-12-04T14:09:26;20.10;;;13.77;;
1885;SDS011;943;51.568;6.998;2022-12-04T14:12:22;20.20;;;15.67;;
1885;SDS011;943;51.568;6.998;2022-12-04T14:15:04;28.53;;;15.27;;
1885;SDS011;943;51.568;6.998;2022-12-04T14:17:57;21.40;;;15.13;;
1885;SDS011;943;51.568;6.998;2022-12-04T14:20:39;25.77;;;16.03;;
1885;SDS011;943;51.568;6.998;2022-12-04T14:25:48;26.20;;;17.27;;
1885;SDS011;943;51.568;6.998;2022-12-04T14:33:37;27.73;;;17.37;;
1885;SDS011;943;51.568;6.998;2022-12-04T14:36:27;26.00;;;17.10;;
1885;SDS011;943;51.568;6.998;2022-12-04T14:39:21;27.33;;;18.10;;
1885;SDS011;943;51.568;6.998;2022-12-04T14:44:55;25.93;;;17.70;;
1885;SDS011;943;51.568;6.998;2022-12-04T14:47:49;26.00;;;17.93;;
1885;SDS011;943;51.568;6.998;2022-12-04T14:51:11;29.37;;;17.77;;
1885;SDS011;943;51.568;6.998;2022-12-04T14:54:27;28.93;;;15.43;;
1885;SDS011;943;51.568;6.998;2022-12-04T14:58:18;26.30;;;17.70;;
1885;SDS011;943;51.568;6.998;2022-12-04T15:00:59;25.73;;;17.30;;
1885;SDS011;943;51.568;6.998;2022-12-04T15:03:46;26.77;;;18.10;;
1885;SDS011;943;51.568;6.998;2022-12-04T15:09:00;29.80;;;16.67;;
1885;SDS011;943;51.568;6.998;2022-12-04T15:11:57;29.73;;;18.50;;
1885;SDS011;943;51.568;6.998;2022-12-04T15:14:56;27.30;;;18.43;;
1885;SDS011;943;51.568;6.998;2022-12-04T15:17:57;29.53;;;18.33;;
1885;SDS011;943;51.568;6.998;2022-12-04T15:20:36;32.70;;;18.30;;
1885;SDS011;943;51.568;6.998;2022-12-04T15:26:10;35.53;;;18.27;;
1885;SDS011;943;51.568;6.998;2022-12-04T15:31:39;27.80;;;17.23;;
1885;SDS011;943;51.568;6.998;2022-12-04T15:34:29;35.10;;;20.40;;
1885;SDS011;943;51.568;6.998;2022-12-04T15:37:25;27.00;;;18.40;;
1885;SDS011;943;51.568;6.998;2022-12-04T15:39:57;29.90;;;19.10;;
1885;SDS011;943;51.568;6.998;2022-12-04T15:42:26;29.03;;;18.90;;
1885;SDS011;943;51.568;6.998;2022-12-04T15:44:58;31.07;;;17.00;;
1885;SDS011;943;51.568;6.998;2022-12-04T15:47:49;32.67;;;19.00;;
1885;SDS011;943;51.568;6.998;2022-12-04T15:50:23;31.17;;;19.83;;
1885;SDS011;943;51.568;6.998;2022-12-04T15:52:57;34.50;;;20.40;;
1885;SDS011;943;51.568;6.998;2022-12-04T15:55:53;31.53;;;19.63;;
1885;SDS011;943;51.568;6.998;2022-12-04T15:58:32;37.33;;;20.30;;
1885;SDS011;943;51.568;6.998;2022-12-04T16:01:08;32.40;;;18.70;;
1885;SDS011;943;51.568;6.998;2022-12-04T16:06:27;40.87;;;22.73;;
1885;SDS011;943;51.568;6.998;2022-12-04T16:09:22;32.53;;;19.30;;
1885;SDS011;943;51.568;6.998;2022-12-04T16:11:59;39.20;;;20.80;;
1885;SDS011;943;51.568;6.998;2022-12-04T16:14:50;35.20;;;21.23;;
1885;SDS011;943;51.568;6.998;2022-12-04T16:17:31;37.93;;;21.53;;
1885;SDS011;943;51.568;6.998;2022-12-04T16:20:02;37.70;;;22.50;;
1885;SDS011;943;51.568;6.998;2022-12-04T16:22:32;46.50;;;25.93;;
1885;SDS011;943;51.568;6.998;2022-12-04T16:25:00;36.03;;;19.67;;
1885;SDS011;943;51.568;6.998;2022-12-04T16:27:30;50.40;;;26.30;;
1885;SDS011;943;51.568;6.998;2022-12-04T16:30:00;34.87;;;20.27;;
1885;SDS011;943;51.568;6.998;2022-12-04T16:32:29;40.37;;;22.63;;
1885;SDS011;943;51.568;6.998;2022-12-04T16:35:00;33.87;;;21.20;;
1885;SDS011;943;51.568;6.998;2022-12-04T16:37:30;29.07;;;19.50;;
1885;SDS011;943;51.568;6.998;2022-12-04T16:39:57;33.50;;;21.37;;
1885;SDS011;943;51.568;6.998;2022-12-04T16:42:26;27.80;;;15.87;;
1885;SDS011;943;51.568;6.998;2022-12-04T16:44:55;31.60;;;18.13;;
1885;SDS011;943;51.568;6.998;2022-12-04T16:47:24;33.90;;;19.20;;
1885;SDS011;943;51.568;6.998;2022-12-04T16:49:52;51.27;;;23.07;;
1885;SDS011;943;51.568;6.998;2022-12-04T16:52:20;42.90;;;26.70;;
1885;SDS011;943;51.568;6.998;2022-12-04T16:54:48;70.30;;;39.27;;
1885;SDS011;943;51.568;6.998;2022-12-04T16:57:16;37.37;;;21.07;;
1885;SDS011;943;51.568;6.998;2022-12-04T16:59:43;32.03;;;19.00;;
1885;SDS011;943;51.568;6.998;2022-12-04T17:02:15;32.97;;;20.80;;
1885;SDS011;943;51.568;6.998;2022-12-04T17:04:52;36.20;;;20.60;;
1885;SDS011;943;51.568;6.998;2022-12-04T17:07:23;37.33;;;20.57;;
1885;SDS011;943;51.568;6.998;2022-12-04T17:09:51;32.30;;;20.73;;
1885;SDS011;943;51.568;6.998;2022-12-04T17:12:20;43.43;;;20.87;;
1885;SDS011;943;51.568;6.998;2022-12-04T17:14:47;34.13;;;20.93;;
1885;SDS011;943;51.568;6.998;2022-12-04T17:17:15;38.30;;;22.30;;
1885;SDS011;943;51.568;6.998;2022-12-04T17:19:43;34.93;;;20.67;;
1885;SDS011;943;51.568;6.998;2022-12-04T17:22:12;37.27;;;21.60;;
1885;SDS011;943;51.568;6.998;2022-12-04T17:24:39;37.73;;;22.00;;
1885;SDS011;943;51.568;6.998;2022-12-04T17:27:22;41.73;;;22.50;;
1885;SDS011;943;51.568;6.998;2022-12-04T17:29:51;33.60;;;21.93;;
1885;SDS011;943;51.568;6.998;2022-12-04T17:32:19;35.90;;;21.97;;
1885;SDS011;943;51.568;6.998;2022-12-04T17:34:47;37.53;;;23.53;;
1885;SDS011;943;51.568;6.998;2022-12-04T17:37:16;36.13;;;23.20;;
1885;SDS011;943;51.568;6.998;2022-12-04T17:39:46;46.20;;;24.63;;
1885;SDS011;943;51.568;6.998;2022-12-04T17:42:14;45.33;;;27.00;;
1885;SDS011;943;51.568;6.998;2022-12-04T17:44:43;36.87;;;21.80;;
1885;SDS011;943;51.568;6.998;2022-12-04T17:47:11;41.93;;;24.90;;
1885;SDS011;943;51.568;6.998;2022-12-04T17:49:39;49.03;;;26.87;;
1885;SDS011;943;51.568;6.998;2022-12-04T17:52:07;44.33;;;22.50;;
1885;SDS011;943;51.568;6.998;2022-12-04T17:54:35;46.10;;;25.87;;
1885;SDS011;943;51.568;6.998;2022-12-04T17:57:02;47.13;;;25.60;;
1885;SDS011;943;51.568;6.998;2022-12-04T17:59:30;49.07;;;26.83;;
1885;SDS011;943;51.568;6.998;2022-12-04T18:01:58;52.17;;;26.77;;
1885;SDS011;943;51.568;6.998;2022-12-04T18:04:26;47.83;;;24.53;;
1885;SDS011;943;51.568;6.998;2022-12-04T18:06:54;52.37;;;26.93;;
1885;SDS011;943;51.568;6.998;2022-12-04T18:09:22;54.37;;;26.47;;
1885;SDS011;943;51.568;6.998;2022-12-04T18:11:50;50.37;;;26.23;;
1885;SDS011;943;51.568;6.998;2022-12-04T18:14:18;45.07;;;25.27;;
1885;SDS011;943;51.568;6.998;2022-12-04T18:16:51;48.40;;;26.60;;
1885;SDS011;943;51.568;6.998;2022-12-04T18:19:24;47.40;;;26.90;;
1885;SDS011;943;51.568;6.998;2022-12-04T18:21:55;48.83;;;26.83;;
1885;SDS011;943;51.568;6.998;2022-12-04T18:24:24;43.50;;;24.90;;